createdAt,value
2023-05-05T00:00:34.749Z,244.71
2023-05-05T00:01:34.788Z,245.48
2023-05-05T00:02:34.929Z,244.62
2023-05-05T00:03:34.980Z,244.79
2023-05-05T00:04:34.872Z,246.05
2023-05-05T00:05:34.990Z,249.22
2023-05-05T00:06:35.027Z,248.00
2023-05-05T00:07:35.010Z,245.15
2023-05-05T00:08:35.058Z,249.20
2023-05-05T00:09:35.112Z,244.96
2023-05-05T00:10:35.150Z,245.29
2023-05-05T00:11:35.189Z,244.95
2023-05-05T00:12:35.240Z,246.57
2023-05-05T00:13:35.254Z,245.03
2023-05-05T00:14:35.321Z,247.51
2023-05-05T00:15:35.363Z,246.48
2023-05-05T00:16:35.411Z,248.74
2023-05-05T00:17:35.509Z,246.78
2023-05-05T00:18:35.487Z,248.30
2023-05-05T00:19:35.541Z,243.02
2023-05-05T00:20:35.560Z,246.57
2023-05-05T00:21:35.572Z,245.06
2023-05-05T00:22:35.660Z,244.55
2023-05-05T00:23:35.683Z,247.19
2023-05-05T00:24:35.725Z,243.56
2023-05-05T00:25:35.760Z,247.61
2023-05-05T00:26:35.784Z,245.06
2023-05-05T00:27:35.887Z,246.97
2023-05-05T00:28:35.894Z,246.22
2023-05-05T00:29:35.972Z,247.84
2023-05-05T00:30:36.015Z,249.66
2023-05-05T00:31:36.084Z,247.25
2023-05-05T00:32:36.110Z,244.53
2023-05-05T00:33:36.105Z,244.19
2023-05-05T00:34:36.168Z,246.93
2023-05-05T00:35:36.249Z,245.15
2023-05-05T00:36:36.290Z,245.59
2023-05-05T00:37:36.310Z,245.28
2023-05-05T00:38:36.356Z,245.45
2023-05-05T00:39:36.385Z,246.60
2023-05-05T00:40:36.459Z,244.67
2023-05-05T00:41:36.495Z,248.89
2023-05-05T00:42:36.532Z,245.07
2023-05-05T00:43:36.565Z,244.54
2023-05-05T00:44:36.595Z,246.36
2023-05-05T00:45:36.687Z,247.90
2023-05-05T00:46:36.740Z,244.90
2023-05-05T00:47:36.772Z,250.00
2023-05-05T00:48:36.794Z,244.73
2023-05-05T00:49:36.876Z,244.01
2023-05-05T00:50:36.888Z,244.87
2023-05-05T00:51:36.930Z,246.56
2023-05-05T00:52:36.987Z,245.10
2023-05-05T00:53:37.017Z,245.97
2023-05-05T00:54:37.108Z,244.21
2023-05-05T00:55:37.166Z,248.72
2023-05-05T00:56:37.180Z,244.76
2023-05-05T00:57:37.244Z,244.57
2023-05-05T00:58:37.273Z,247.81
2023-05-05T00:59:37.312Z,245.87
2023-05-05T01:00:37.420Z,246.16
2023-05-05T01:01:37.450Z,244.94
2023-05-05T01:02:37.524Z,242.61
2023-05-05T01:03:37.600Z,245.97
2023-05-05T01:04:37.559Z,250.00
2023-05-05T01:05:37.663Z,248.63
2023-05-05T01:06:37.678Z,245.96
2023-05-05T01:07:37.711Z,247.90
2023-05-05T01:08:37.769Z,245.40
2023-05-05T01:09:37.792Z,248.36
2023-05-05T01:10:37.856Z,245.91
2023-05-05T01:11:37.889Z,247.15
2023-05-05T01:12:38.871Z,245.15
2023-05-05T01:13:38.015Z,245.96
2023-05-05T01:14:38.027Z,246.36
2023-05-05T01:15:38.104Z,245.61
2023-05-05T01:16:38.154Z,245.15
2023-05-05T01:17:38.237Z,245.01
2023-05-05T01:18:38.255Z,246.72
2023-05-05T01:19:38.301Z,246.09
2023-05-05T01:20:38.324Z,246.37
2023-05-05T01:21:38.368Z,245.39
2023-05-05T01:22:38.403Z,245.11
2023-05-05T01:23:38.486Z,245.52
2023-05-05T01:24:38.552Z,244.11
2023-05-05T01:25:38.584Z,243.11
2023-05-05T01:26:38.625Z,241.55
2023-05-05T01:27:38.696Z,248.36
2023-05-05T01:28:38.711Z,244.77
2023-05-05T01:29:38.785Z,245.95
2023-05-05T01:30:38.816Z,246.04
2023-05-05T01:31:38.927Z,246.95
2023-05-05T01:32:38.923Z,245.00
2023-05-05T01:33:38.943Z,247.34
2023-05-05T01:34:38.998Z,245.28
2023-05-05T01:35:39.074Z,246.30
2023-05-05T01:36:39.112Z,245.60
2023-05-05T01:37:39.166Z,246.73
2023-05-05T01:38:39.294Z,242.00
2023-05-05T01:39:39.241Z,245.79
2023-05-05T01:40:39.329Z,243.96
2023-05-05T01:41:39.378Z,247.24
2023-05-05T01:42:39.418Z,249.93
2023-05-05T01:43:39.438Z,246.18
2023-05-05T01:44:39.509Z,246.77
2023-05-05T01:45:39.648Z,250.00
2023-05-05T01:46:39.624Z,247.36
2023-05-05T01:47:39.687Z,245.68
2023-05-05T01:48:42.246Z,244.04
2023-05-05T01:49:39.938Z,244.14
2023-05-05T01:50:40.033Z,245.37
2023-05-05T01:51:40.038Z,247.47
2023-05-05T01:52:40.137Z,245.62
2023-05-05T01:53:40.114Z,244.04
2023-05-05T01:54:40.156Z,248.38
2023-05-05T01:55:40.231Z,245.43
2023-05-05T01:56:40.262Z,243.68
2023-05-05T01:57:40.293Z,244.44
2023-05-05T01:58:40.368Z,246.23
2023-05-05T01:59:40.401Z,247.65
2023-05-05T02:00:40.473Z,246.43
2023-05-05T02:01:40.556Z,246.13
2023-05-05T02:02:40.582Z,245.52
2023-05-05T02:03:40.578Z,246.00
2023-05-05T02:04:40.650Z,242.61
2023-05-05T02:05:40.731Z,246.11
2023-05-05T02:06:40.739Z,243.91
2023-05-05T02:07:40.777Z,245.60
2023-05-05T02:08:40.819Z,248.74
2023-05-05T02:09:40.911Z,246.24
2023-05-05T02:10:41.021Z,243.96
2023-05-05T02:11:40.997Z,246.08
2023-05-05T02:12:41.076Z,245.66
2023-05-05T02:13:41.114Z,246.89
2023-05-05T02:14:41.110Z,244.96
2023-05-05T02:15:41.204Z,243.77
2023-05-05T02:16:41.307Z,244.63
2023-05-05T02:17:41.302Z,242.69
2023-05-05T02:18:41.318Z,245.46
2023-05-05T02:19:41.370Z,247.89
2023-05-05T02:20:41.431Z,248.34
2023-05-05T02:21:41.462Z,244.76
2023-05-05T02:22:41.538Z,245.13
2023-05-05T02:23:41.574Z,246.11
2023-05-05T02:24:41.608Z,243.76
2023-05-05T02:25:41.683Z,247.12
2023-05-05T02:26:41.734Z,245.85
2023-05-05T02:27:41.781Z,246.93
2023-05-05T02:28:41.818Z,246.91
2023-05-05T02:29:41.841Z,247.86
2023-05-05T02:30:41.933Z,246.92
2023-05-05T02:31:42.016Z,247.15
2023-05-05T02:32:41.986Z,243.53
2023-05-05T02:33:42.078Z,250.00
2023-05-05T02:34:42.119Z,245.02
2023-05-05T02:35:42.137Z,244.63
2023-05-05T02:36:42.201Z,246.17
2023-05-05T02:37:42.248Z,246.26
2023-05-05T02:38:42.329Z,246.73
2023-05-05T02:39:42.348Z,243.21
2023-05-05T02:40:42.434Z,245.81
2023-05-05T02:41:42.439Z,247.43
2023-05-05T02:42:42.529Z,244.74
2023-05-05T02:43:42.558Z,248.09
2023-05-05T02:44:42.622Z,245.51
2023-05-05T02:45:42.694Z,242.26
2023-05-05T02:46:42.759Z,247.32
2023-05-05T02:47:42.768Z,245.69
2023-05-05T02:48:42.771Z,244.68
2023-05-05T02:49:42.846Z,246.35
2023-05-05T02:50:42.893Z,243.69
2023-05-05T02:51:42.976Z,243.04
2023-05-05T02:52:43.043Z,248.10
2023-05-05T02:53:43.053Z,245.23
2023-05-05T02:54:43.098Z,245.43
2023-05-05T02:55:43.133Z,245.06
2023-05-05T02:56:43.227Z,248.35
2023-05-05T02:57:43.265Z,245.56
2023-05-05T02:58:43.335Z,245.73
2023-05-05T02:59:43.356Z,249.85
2023-05-05T03:00:43.424Z,246.73
2023-05-05T03:01:43.482Z,243.35
2023-05-05T03:02:43.571Z,240.93
2023-05-05T03:03:43.620Z,247.22
2023-05-05T03:04:43.599Z,245.93
2023-05-05T03:05:43.776Z,240.74
2023-05-05T03:06:43.748Z,246.97
2023-05-05T03:07:43.789Z,245.66
2023-05-05T03:08:43.827Z,245.87
2023-05-05T03:09:43.859Z,245.33
2023-05-05T03:10:43.954Z,244.91
2023-05-05T03:11:43.963Z,246.09
2023-05-05T03:12:44.059Z,246.94
2023-05-05T03:13:44.098Z,245.74
2023-05-05T03:14:44.153Z,245.98
2023-05-05T03:15:44.227Z,244.09
2023-05-05T03:16:44.407Z,243.69
2023-05-05T03:17:44.374Z,246.84
2023-05-05T03:18:44.349Z,244.21
2023-05-05T03:19:44.437Z,243.15
2023-05-05T03:20:44.473Z,245.11
2023-05-05T03:21:44.520Z,247.08
2023-05-05T03:22:44.580Z,245.82
2023-05-05T03:23:44.645Z,244.23
2023-05-05T03:24:44.664Z,246.53
2023-05-05T03:25:44.721Z,243.21
2023-05-05T03:26:44.788Z,244.47
2023-05-05T03:27:44.810Z,245.72
2023-05-05T03:28:44.911Z,247.15
2023-05-05T03:29:44.949Z,242.22
2023-05-05T03:30:44.996Z,245.02
2023-05-05T03:31:45.129Z,243.77
2023-05-05T03:32:45.145Z,245.63
2023-05-05T03:33:45.170Z,245.19
2023-05-05T03:34:45.207Z,246.45
2023-05-05T03:35:45.279Z,242.38
2023-05-05T03:36:45.327Z,244.52
2023-05-05T03:37:45.338Z,245.25
2023-05-05T03:38:45.414Z,247.55
2023-05-05T03:39:45.475Z,244.58
2023-05-05T03:40:45.531Z,245.97
2023-05-05T03:41:46.568Z,246.22
2023-05-05T03:42:45.537Z,246.75
2023-05-05T03:43:45.544Z,246.51
2023-05-05T03:44:45.499Z,246.16
2023-05-05T03:45:45.519Z,247.44
2023-05-05T03:46:45.518Z,245.48
2023-05-05T03:47:45.487Z,243.50
2023-05-05T03:48:45.472Z,241.84
2023-05-05T03:49:45.523Z,245.40
2023-05-05T03:50:45.553Z,245.51
2023-05-05T03:51:45.624Z,245.20
2023-05-05T03:52:45.711Z,249.29
2023-05-05T03:53:45.751Z,244.50
2023-05-05T03:54:45.794Z,245.72
2023-05-05T03:55:45.872Z,245.44
2023-05-05T03:56:45.931Z,244.41
2023-05-05T03:57:45.989Z,244.58
2023-05-05T03:58:46.076Z,246.62
2023-05-05T03:59:46.116Z,246.54
2023-05-05T04:00:46.124Z,245.37
2023-05-05T04:01:46.211Z,244.28
2023-05-05T04:02:46.397Z,247.12
2023-05-05T04:03:46.373Z,248.34
2023-05-05T04:04:46.368Z,246.63
2023-05-05T04:05:46.453Z,245.31
2023-05-05T04:06:46.501Z,245.90
2023-05-05T04:07:46.566Z,245.79
2023-05-05T04:08:46.683Z,245.60
2023-05-05T04:09:46.665Z,245.88
2023-05-05T04:10:46.764Z,246.00
2023-05-05T04:11:46.792Z,246.55
2023-05-05T04:12:46.863Z,244.68
2023-05-05T04:13:46.926Z,247.27
2023-05-05T04:14:46.951Z,246.10
2023-05-05T04:15:47.053Z,242.96
2023-05-05T04:16:47.069Z,245.72
2023-05-05T04:17:47.154Z,242.59
2023-05-05T04:18:47.185Z,245.97
2023-05-05T04:19:47.258Z,249.53
2023-05-05T04:20:47.289Z,244.42
2023-05-05T04:21:47.379Z,244.64
2023-05-05T04:22:47.446Z,245.28
2023-05-05T04:23:47.459Z,241.99
2023-05-05T04:24:47.541Z,242.84
2023-05-05T04:25:47.591Z,247.03
2023-05-05T04:26:47.657Z,246.73
2023-05-05T04:27:47.694Z,244.21
2023-05-05T04:28:47.772Z,246.83
2023-05-05T04:29:47.833Z,242.93
2023-05-05T04:30:47.883Z,247.22
2023-05-05T04:31:48.063Z,245.15
2023-05-05T04:32:48.000Z,247.71
2023-05-05T04:33:48.084Z,245.67
2023-05-05T04:34:48.093Z,243.01
2023-05-05T04:35:48.179Z,246.02
2023-05-05T04:36:48.239Z,247.50
2023-05-05T04:37:48.269Z,245.91
2023-05-05T04:38:48.368Z,247.85
2023-05-05T04:39:48.418Z,242.54
2023-05-05T04:40:48.470Z,244.13
2023-05-05T04:41:48.527Z,245.45
2023-05-05T04:42:48.580Z,243.58
2023-05-05T04:43:48.624Z,246.55
2023-05-05T04:44:48.676Z,246.09
2023-05-05T04:45:48.740Z,246.00
2023-05-05T04:46:48.862Z,244.54
2023-05-05T04:47:48.919Z,247.67
2023-05-05T04:48:48.912Z,245.73
2023-05-05T04:49:48.980Z,244.66
2023-05-05T04:50:49.036Z,248.17
2023-05-05T04:51:49.093Z,246.38
2023-05-05T04:52:51.310Z,247.22
2023-05-05T04:53:49.121Z,245.27
2023-05-05T04:54:49.120Z,243.42
2023-05-05T04:55:49.134Z,242.81
2023-05-05T04:56:49.116Z,240.30
2023-05-05T04:57:49.097Z,242.37
2023-05-05T04:58:49.091Z,241.61
2023-05-05T04:59:49.118Z,243.51
2023-05-05T05:00:49.077Z,241.13
2023-05-05T05:01:49.105Z,240.40
2023-05-05T05:02:49.164Z,239.77
2023-05-05T05:03:49.111Z,239.79
2023-05-05T05:04:49.054Z,239.14
2023-05-05T05:05:49.059Z,243.86
2023-05-05T05:06:49.086Z,244.95
2023-05-05T05:07:49.057Z,242.64
2023-05-05T05:08:49.040Z,243.99
2023-05-05T05:09:49.036Z,239.27
2023-05-05T05:10:49.009Z,241.20
2023-05-05T05:11:49.000Z,241.36
2023-05-05T05:12:49.015Z,239.21
2023-05-05T05:13:48.976Z,242.56
2023-05-05T05:14:48.961Z,239.79
2023-05-05T05:15:48.990Z,244.45
2023-05-05T05:16:49.053Z,240.21
2023-05-05T05:17:48.964Z,243.75
2023-05-05T05:18:48.925Z,241.42
2023-05-05T05:19:48.933Z,240.17
2023-05-05T05:20:48.966Z,242.87
2023-05-05T05:21:48.921Z,239.37
2023-05-05T05:22:48.916Z,243.11
2023-05-05T05:23:48.895Z,242.99
2023-05-05T05:24:48.932Z,244.40
2023-05-05T05:25:48.964Z,240.25
2023-05-05T05:26:49.041Z,239.68
2023-05-05T05:27:58.541Z,239.71
2023-05-05T05:28:50.064Z,239.90
2023-05-05T05:29:49.046Z,240.44
2023-05-05T05:30:49.082Z,240.84
2023-05-05T05:31:49.086Z,240.35
2023-05-05T05:32:49.095Z,242.92
2023-05-05T05:33:49.047Z,241.64
2023-05-05T05:34:49.022Z,243.45
2023-05-05T05:35:49.035Z,241.00
2023-05-05T05:36:49.082Z,242.02
2023-05-05T05:37:49.138Z,239.58
2023-05-05T05:38:49.202Z,242.58
2023-05-05T05:39:49.255Z,242.72
2023-05-05T05:40:49.308Z,239.73
2023-05-05T05:41:49.370Z,242.19
2023-05-05T05:42:49.440Z,236.55
2023-05-05T05:43:49.511Z,244.06
2023-05-05T05:44:49.563Z,239.88
2023-05-05T05:45:49.631Z,239.38
2023-05-05T05:46:49.813Z,240.30
2023-05-05T05:47:49.764Z,244.36
2023-05-05T05:48:49.805Z,240.81
2023-05-05T05:49:49.869Z,241.02
2023-05-05T05:50:49.928Z,241.47
2023-05-05T05:51:50.401Z,241.73
2023-05-05T05:52:50.091Z,242.67
2023-05-05T05:53:50.081Z,244.56
2023-05-05T05:54:50.181Z,239.06
2023-05-05T05:55:50.237Z,240.52
2023-05-05T05:56:50.282Z,239.70
2023-05-05T05:57:50.343Z,239.90
2023-05-05T05:58:50.383Z,240.31
2023-05-05T05:59:50.475Z,240.76
2023-05-05T06:00:50.557Z,243.14
2023-05-05T06:01:50.573Z,242.35
2023-05-05T06:02:50.679Z,241.27
2023-05-05T06:03:50.847Z,239.98
2023-05-05T06:04:50.754Z,239.38
2023-05-05T06:05:50.852Z,241.17
2023-05-05T06:06:50.981Z,239.12
2023-05-05T06:07:50.975Z,240.05
2023-05-05T06:08:51.020Z,238.81
2023-05-05T06:09:51.097Z,238.29
2023-05-05T06:10:51.125Z,237.80
2023-05-05T06:11:51.189Z,237.31
2023-05-05T06:12:51.298Z,235.58
2023-05-05T06:13:51.307Z,235.23
2023-05-05T06:14:51.360Z,236.34
2023-05-05T06:15:51.493Z,236.29
2023-05-05T06:16:51.683Z,236.31
2023-05-05T06:17:51.609Z,233.04
2023-05-05T06:18:51.643Z,235.18
2023-05-05T06:19:54.074Z,232.21
2023-05-05T06:20:51.663Z,231.69
2023-05-05T06:21:51.725Z,231.13
2023-05-05T06:22:51.668Z,231.26
2023-05-05T06:23:51.648Z,229.68
2023-05-05T06:24:51.655Z,230.79
2023-05-05T06:25:51.654Z,227.79
2023-05-05T06:26:51.935Z,231.07
2023-05-05T06:27:51.649Z,230.31
2023-05-05T06:28:51.647Z,227.29
2023-05-05T06:29:51.593Z,227.47
2023-05-05T06:30:51.623Z,227.63
2023-05-05T06:31:51.635Z,227.00
2023-05-05T06:32:51.608Z,224.53
2023-05-05T06:33:51.600Z,228.94
2023-05-05T06:34:51.581Z,225.33
2023-05-05T06:35:51.569Z,226.74
2023-05-05T06:36:51.990Z,222.74
2023-05-05T06:37:51.577Z,225.40
2023-05-05T06:38:51.560Z,222.64
2023-05-05T06:39:51.542Z,223.18
2023-05-05T06:40:51.547Z,219.22
2023-05-05T06:41:51.530Z,223.40
2023-05-05T06:42:51.547Z,220.94
2023-05-05T06:43:51.519Z,218.99
2023-05-05T06:44:51.510Z,219.10
2023-05-05T06:45:51.496Z,218.54
2023-05-05T06:46:51.963Z,221.09
2023-05-05T06:47:51.535Z,223.35
2023-05-05T06:48:51.483Z,219.03
2023-05-05T06:49:51.496Z,218.56
2023-05-05T06:50:51.520Z,219.07
2023-05-05T06:51:51.469Z,214.60
2023-05-05T06:52:51.448Z,217.22
2023-05-05T06:53:51.456Z,220.78
2023-05-05T06:54:51.456Z,223.37
2023-05-05T06:55:51.444Z,222.32
2023-05-05T06:56:51.522Z,220.22
2023-05-05T06:57:51.557Z,222.82
2023-05-05T06:58:51.728Z,223.64
2023-05-05T06:59:51.681Z,224.71
2023-05-05T07:00:51.747Z,221.77
2023-05-05T07:01:51.812Z,225.91
2023-05-05T07:02:51.916Z,224.10
2023-05-05T07:03:51.994Z,222.60
2023-05-05T07:04:52.004Z,222.86
2023-05-05T07:05:52.088Z,223.76
2023-05-05T07:06:52.436Z,226.98
2023-05-05T07:07:52.178Z,225.15
2023-05-05T07:08:52.241Z,228.90
2023-05-05T07:09:52.320Z,229.41
2023-05-05T07:10:52.343Z,229.80
2023-05-05T07:11:52.431Z,229.10
2023-05-05T07:12:52.594Z,228.13
2023-05-05T07:13:52.544Z,229.37
2023-05-05T07:14:52.826Z,229.12
2023-05-05T07:15:52.694Z,229.90
2023-05-05T07:16:52.814Z,233.45
2023-05-05T07:17:52.947Z,229.05
2023-05-05T07:18:53.017Z,228.58
2023-05-05T07:19:52.971Z,231.07
2023-05-05T07:20:52.996Z,233.45
2023-05-05T07:21:53.039Z,233.16
2023-05-05T07:22:53.089Z,239.41
2023-05-05T07:23:53.164Z,246.61
2023-05-05T07:24:53.244Z,247.88
2023-05-05T07:25:53.255Z,248.85
2023-05-05T07:26:53.336Z,248.05
2023-05-05T07:27:53.396Z,248.52
2023-05-05T07:28:53.415Z,247.95
2023-05-05T07:29:53.470Z,250.00
2023-05-05T07:30:53.584Z,247.39
2023-05-05T07:31:53.560Z,248.91
2023-05-05T07:32:53.635Z,249.66
2023-05-05T07:33:53.659Z,250.00
2023-05-05T07:34:53.640Z,248.66
2023-05-05T07:35:53.702Z,249.69
2023-05-05T07:36:53.696Z,250.00
2023-05-05T07:37:53.735Z,250.00
2023-05-05T07:38:53.758Z,248.05
2023-05-05T07:39:53.784Z,249.44
2023-05-05T07:40:53.803Z,249.78
2023-05-05T07:41:53.941Z,247.31
2023-05-05T07:42:53.888Z,250.00
2023-05-05T07:43:53.848Z,250.00
2023-05-05T07:44:53.878Z,250.00
2023-05-05T07:45:53.912Z,249.42
2023-05-05T07:46:54.041Z,248.02
2023-05-05T07:47:53.965Z,250.00
2023-05-05T07:48:54.025Z,249.55
2023-05-05T07:49:53.895Z,249.38
2023-05-05T07:50:53.896Z,249.68
2023-05-05T07:51:53.928Z,250.00
2023-05-05T07:52:59.373Z,248.38
2023-05-05T07:53:54.953Z,248.66
2023-05-05T07:54:54.065Z,249.91
2023-05-05T07:55:53.901Z,253.09
2023-05-05T07:56:53.883Z,256.81
2023-05-05T07:57:53.871Z,264.79
2023-05-05T07:58:53.845Z,249.83
2023-05-05T07:59:53.866Z,248.50
2023-05-05T08:00:53.853Z,250.00
2023-05-05T08:01:55.021Z,249.65
2023-05-05T08:02:54.189Z,248.62
2023-05-05T08:03:54.150Z,249.65
2023-05-05T08:04:53.836Z,249.81
2023-05-05T08:05:53.845Z,250.00
2023-05-05T08:06:53.814Z,250.00
2023-05-05T08:07:53.834Z,249.32
2023-05-05T08:08:53.833Z,249.35
2023-05-05T08:09:53.816Z,250.00
2023-05-05T08:10:53.781Z,249.22
2023-05-05T08:11:53.803Z,248.81
2023-05-05T08:12:53.774Z,249.72
2023-05-05T08:13:53.750Z,249.56
2023-05-05T08:14:53.775Z,248.04
2023-05-05T08:15:53.778Z,249.31
2023-05-05T08:16:53.731Z,247.73
2023-05-05T08:17:53.782Z,250.00
2023-05-05T08:18:53.889Z,248.52
2023-05-05T08:19:53.772Z,249.99
2023-05-05T08:20:53.716Z,247.99
2023-05-05T08:21:53.708Z,249.39
2023-05-05T08:22:53.725Z,250.00
2023-05-05T08:23:53.714Z,248.78
2023-05-05T08:24:53.715Z,248.86
2023-05-05T08:25:53.717Z,248.19
2023-05-05T08:26:53.736Z,240.28
2023-05-05T08:27:53.694Z,246.18
2023-05-05T08:28:53.671Z,245.54
2023-05-05T08:29:53.655Z,240.23
2023-05-05T08:30:53.657Z,239.24
2023-05-05T08:31:53.748Z,204.02
2023-05-05T08:32:53.687Z,212.33
2023-05-05T08:33:53.636Z,189.13
2023-05-05T08:34:53.679Z,149.31
2023-05-05T08:35:53.649Z,124.40
2023-05-05T08:36:53.641Z,116.86
2023-05-05T08:37:54.950Z,109.53
2023-05-05T08:38:53.652Z,103.93
2023-05-05T08:39:53.726Z,81.13
2023-05-05T08:40:53.812Z,71.01
2023-05-05T08:41:53.855Z,61.54
2023-05-05T08:42:53.891Z,42.58
2023-05-05T08:43:53.911Z,32.24
2023-05-05T08:44:53.910Z,24.45
2023-05-05T08:45:53.940Z,25.00
2023-05-05T08:46:53.949Z,25.81
2023-05-05T08:47:53.990Z,24.20
2023-05-05T08:48:53.921Z,25.59
2023-05-05T08:49:53.967Z,26.38
2023-05-05T08:50:54.005Z,31.91
2023-05-05T08:51:53.958Z,38.78
2023-05-05T08:52:54.002Z,34.84
2023-05-05T08:53:53.994Z,35.86
2023-05-05T08:54:54.010Z,46.96
2023-05-05T08:55:53.989Z,47.31
2023-05-05T08:56:53.983Z,31.74
2023-05-05T08:57:53.971Z,28.98
2023-05-05T08:58:53.973Z,27.64
2023-05-05T08:59:53.988Z,29.59
2023-05-05T09:00:54.031Z,25.08
2023-05-05T09:01:54.015Z,32.29
2023-05-05T09:02:54.095Z,38.39
2023-05-05T09:03:54.002Z,51.13
2023-05-05T09:04:54.001Z,55.79
2023-05-05T09:05:54.011Z,62.08
2023-05-05T09:06:54.267Z,51.15
2023-05-05T09:07:54.491Z,29.62
2023-05-05T09:08:54.117Z,27.15
2023-05-05T09:09:54.129Z,25.94
2023-05-05T09:10:54.140Z,30.06
2023-05-05T09:11:54.104Z,33.01
2023-05-05T09:12:54.132Z,41.85
2023-05-05T09:13:54.141Z,52.11
2023-05-05T09:14:54.145Z,52.08
2023-05-05T09:15:54.183Z,55.67
2023-05-05T09:16:54.241Z,48.53
2023-05-05T09:17:54.282Z,34.23
2023-05-05T09:18:54.319Z,26.61
2023-05-05T09:19:54.326Z,34.84
2023-05-05T09:20:54.406Z,38.88
2023-05-05T09:21:54.429Z,43.61
2023-05-05T09:22:54.525Z,52.11
2023-05-05T09:23:55.079Z,54.54
2023-05-05T09:24:54.552Z,53.39
2023-05-05T09:25:54.638Z,55.91
2023-05-05T09:26:54.648Z,58.01
2023-05-05T09:27:55.045Z,57.39
2023-05-05T09:28:54.799Z,59.29
2023-05-05T09:29:54.858Z,60.79
2023-05-05T09:30:54.961Z,62.40
2023-05-05T09:31:55.021Z,62.22
2023-05-05T09:32:55.106Z,63.43
2023-05-05T09:33:55.129Z,62.70
2023-05-05T09:34:55.178Z,61.99
2023-05-05T09:35:55.240Z,60.67
2023-05-05T09:36:55.314Z,59.08
2023-05-05T09:37:55.420Z,42.16
2023-05-05T09:38:56.351Z,34.45
2023-05-05T09:39:55.490Z,48.66
2023-05-05T09:40:55.546Z,55.73
2023-05-05T09:41:55.614Z,49.99
2023-05-05T09:42:55.995Z,46.49
2023-05-05T09:43:55.689Z,56.25
2023-05-05T09:44:57.856Z,63.14
2023-05-05T09:45:55.774Z,50.47
2023-05-05T09:46:55.732Z,45.01
2023-05-05T09:47:59.536Z,54.40
2023-05-05T09:48:55.752Z,54.87
2023-05-05T09:49:55.712Z,57.40
2023-05-05T09:50:55.753Z,63.55
2023-05-05T09:51:55.723Z,72.78
2023-05-05T09:52:55.701Z,86.07
2023-05-05T09:53:55.724Z,93.29
2023-05-05T09:54:55.767Z,96.12
2023-05-05T09:55:55.674Z,99.68
2023-05-05T09:56:55.672Z,103.99
2023-05-05T09:57:56.096Z,107.54
2023-05-05T09:58:57.081Z,111.99
2023-05-05T09:59:56.505Z,115.35
2023-05-05T10:00:55.635Z,119.68
2023-05-05T10:01:55.665Z,123.25
2023-05-05T10:02:55.667Z,126.97
2023-05-05T10:03:55.619Z,129.39
2023-05-05T10:04:55.647Z,131.58
2023-05-05T10:05:55.697Z,133.17
2023-05-05T10:06:55.624Z,136.24
2023-05-05T10:07:55.582Z,137.36
2023-05-05T10:08:55.598Z,137.56
2023-05-05T10:09:55.555Z,142.56
2023-05-05T10:10:55.661Z,143.51
2023-05-05T10:11:55.567Z,143.61
2023-05-05T10:12:55.605Z,144.00
2023-05-05T10:13:55.561Z,145.68
2023-05-05T10:14:55.568Z,146.45
2023-05-05T10:15:55.587Z,148.70
2023-05-05T10:16:55.534Z,149.90
2023-05-05T10:18:06.192Z,150.74
2023-05-05T10:18:56.530Z,150.94
2023-05-05T10:19:55.518Z,151.17
2023-05-05T10:20:55.483Z,151.99
2023-05-05T10:21:55.490Z,153.40
2023-05-05T10:22:55.488Z,155.35
2023-05-05T10:23:55.465Z,157.04
2023-05-05T10:24:55.462Z,159.46
2023-05-05T10:25:55.483Z,158.43
2023-05-05T10:26:55.537Z,159.55
2023-05-05T10:27:55.457Z,161.11
2023-05-05T10:28:55.442Z,161.52
2023-05-05T10:29:55.485Z,162.79
2023-05-05T10:30:55.482Z,168.29
2023-05-05T10:31:55.573Z,171.93
2023-05-05T10:33:07.981Z,176.10
2023-05-05T10:33:56.649Z,176.32
2023-05-05T10:34:55.535Z,176.87
2023-05-05T10:35:55.582Z,177.75
2023-05-05T10:36:55.539Z,180.33
2023-05-05T10:37:55.523Z,183.43
2023-05-05T10:38:55.536Z,184.38
2023-05-05T10:39:55.532Z,187.23
2023-05-05T10:40:55.501Z,190.65
2023-05-05T10:41:55.506Z,195.20
2023-05-05T10:42:55.648Z,199.01
2023-05-05T10:43:55.501Z,202.88
2023-05-05T10:44:55.533Z,207.52
2023-05-05T10:45:55.637Z,210.13
2023-05-05T10:46:55.470Z,213.22
2023-05-05T10:47:55.483Z,213.67
2023-05-05T10:48:55.493Z,217.20
2023-05-05T10:49:55.456Z,223.07
2023-05-05T10:50:55.412Z,220.98
2023-05-05T10:51:55.424Z,223.06
2023-05-05T10:52:55.423Z,224.49
2023-05-05T10:53:55.418Z,227.14
2023-05-05T10:54:55.406Z,228.90
2023-05-05T10:55:55.381Z,231.56
2023-05-05T10:56:55.379Z,233.53
2023-05-05T10:57:55.395Z,237.31
2023-05-05T10:59:00.009Z,240.32
2023-05-05T10:59:56.414Z,240.49
2023-05-05T11:00:55.420Z,241.23
2023-05-05T11:01:55.537Z,242.47
2023-05-05T11:02:55.379Z,245.36
2023-05-05T11:03:55.358Z,251.36
2023-05-05T11:04:55.325Z,249.99
2023-05-05T11:05:55.325Z,249.77
2023-05-05T11:06:55.347Z,249.71
2023-05-05T11:07:55.333Z,250.01
2023-05-05T11:08:55.314Z,250.00
2023-05-05T11:09:55.301Z,249.88
2023-05-05T11:10:55.312Z,248.58
2023-05-05T11:11:55.281Z,249.98
2023-05-05T11:12:55.340Z,248.60
2023-05-05T11:13:55.314Z,249.38
2023-05-05T11:14:55.393Z,249.76
2023-05-05T11:15:55.297Z,249.94
2023-05-05T11:16:55.325Z,249.40
2023-05-05T11:17:55.410Z,249.95
2023-05-05T11:18:55.344Z,250.00
2023-05-05T11:19:55.380Z,250.00
2023-05-05T11:20:55.415Z,249.28
2023-05-05T11:21:55.454Z,248.57
2023-05-05T11:22:55.493Z,249.64
2023-05-05T11:23:55.486Z,249.59
2023-05-05T11:24:55.508Z,250.00
2023-05-05T11:25:55.506Z,250.00
2023-05-05T11:26:55.578Z,247.93
2023-05-05T11:27:56.049Z,250.00
2023-05-05T11:28:55.644Z,250.00
2023-05-05T11:29:55.647Z,249.85
2023-05-05T11:30:56.147Z,247.71
2023-05-05T11:31:55.749Z,250.11
2023-05-05T11:32:55.825Z,249.33
2023-05-05T11:33:56.060Z,248.69
2023-05-05T11:34:55.793Z,250.00
2023-05-05T11:35:55.831Z,249.15
2023-05-05T11:36:55.820Z,248.09
2023-05-05T11:37:55.858Z,248.78
2023-05-05T11:38:55.931Z,248.78
2023-05-05T11:39:55.888Z,248.99
2023-05-05T11:40:55.898Z,248.76
2023-05-05T11:41:55.898Z,249.52
2023-05-05T11:42:55.922Z,248.88
2023-05-05T11:43:55.908Z,248.89
2023-05-05T11:44:55.942Z,247.93
2023-05-05T11:45:55.977Z,247.25
2023-05-05T11:46:56.038Z,246.94
2023-05-05T11:47:56.040Z,246.29
2023-05-05T11:48:56.010Z,245.32
2023-05-05T11:49:56.008Z,245.05
2023-05-05T11:50:56.039Z,244.58
2023-05-05T11:51:56.039Z,244.73
2023-05-05T11:52:56.049Z,243.45
2023-05-05T11:53:58.466Z,243.87
2023-05-05T11:54:56.054Z,243.88
2023-05-05T11:55:56.020Z,242.40
2023-05-05T11:56:56.018Z,241.23
2023-05-05T11:57:55.992Z,241.64
2023-05-05T11:58:56.009Z,241.68
2023-05-05T11:59:56.008Z,240.98
2023-05-05T12:00:56.010Z,240.28
2023-05-05T12:01:55.970Z,240.60
2023-05-05T12:02:56.137Z,240.43
2023-05-05T12:03:56.124Z,240.09
2023-05-05T12:04:56.133Z,240.71
2023-05-05T12:05:55.960Z,240.87
2023-05-05T12:06:55.938Z,239.64
2023-05-05T12:07:55.951Z,239.93
2023-05-05T12:08:55.915Z,239.98
2023-05-05T12:09:55.924Z,239.52
2023-05-05T12:10:55.898Z,239.06
2023-05-05T12:11:55.921Z,238.50
2023-05-05T12:12:56.121Z,238.56
2023-05-05T12:13:55.919Z,238.83
2023-05-05T12:14:55.892Z,238.58
2023-05-05T12:15:55.926Z,238.00
2023-05-05T12:16:55.916Z,238.16
2023-05-05T12:17:55.889Z,237.46
2023-05-05T12:18:55.928Z,237.88
2023-05-05T12:19:55.852Z,238.03
2023-05-05T12:20:55.866Z,236.24
2023-05-05T12:21:55.843Z,235.74
2023-05-05T12:22:55.855Z,235.68
2023-05-05T12:23:55.863Z,235.97
2023-05-05T12:24:55.806Z,236.14
2023-05-05T12:25:56.579Z,235.11
2023-05-05T12:26:55.793Z,235.21
2023-05-05T12:27:55.818Z,235.15
2023-05-05T12:28:55.804Z,234.43
2023-05-05T12:29:55.806Z,234.76
2023-05-05T12:30:55.857Z,234.50